메인 페이지
METAR-TAF:

METAR-TAF

공항 :

카옌로 샹부 공항

카옌, 프랑스령 기아나

위도: 04-50N, 경도: 052-22W, 고도: 105m

현재 날씨관측

예보는 39분 전, 18:00시(UTC)에 발표되었습니다.
남남동8kt동남동풍과 남남서풍을 오가는
온도 28°C
습도 70%
기압 1013 hPa
시정 10km 이상

METAR: SOCA 221800Z AUTO 16008KT 110V200 9999 BKN027/// BKN032/// BKN064/// ///CB 28/22 Q1013 TEMPO 1000 TSRA

시각: 15:39 (18:39 UTC)

예보

예보는 2 시간 39분 전, 16:00시(UTC)에 발표되었습니다.
예보 대상 시간: 22일 18시부터 23일 18시까지 (UTC)
10kt
시정 10km 이상
고도 2000ft 상공 구름 보통
일시적
22일 18시부터 23일 18시까지 (UTC)
시정: 3000m
고도 1000ft 상공 구름 조금, 타워링 적운.
소나기
확률 30% :
일시적
22일 18시부터 22일 20시까지 (UTC)
12kt, 순간 최대 풍속 22kt
시정: 1000m
고도 1000ft 상공 구름 조금, 적란운.
뇌우, 비
확률 30% :
일시적
23일 15시부터 23일 18시까지 (UTC)
12kt, 순간 최대 풍속 22kt
시정: 1000m
고도 1000ft 상공 구름 조금, 적란운.
뇌우, 비

TAF: SOCA 221600Z 2218/2318 09010KT 9999 SCT020 TEMPO 2218/2318 3000 SHRA FEW010TCU PROB30 TEMPO 2218/2220 09012G22KT 1000 TSRA FEW010CB PROB30 TEMPO 2315/2318 09012G22KT 1000 TSRA FEW010CB

4,000개 이상의 공항 관측 자료 및 예보 (METAR 및 TAF 보고).

지도상에서 검색 가능한 기상관측소가 노란 점과 빨간 점으로 표시되어 있습니다.

기상관측소 명을 보려면 표시 위로 마우스를 이동하세요.

날씨 관측과 예보를 보려면 클릭하세요.

지도 변경 : 확대하려면 엑스 표시가 있는 녹색 버튼, 축소하려면 빼기 표시가 있는 녹색 버튼, 다음 페이지의 지도를 보려면 녹색 화살표를 클릭하세요.


METAR-TAF: